LIMP/PMF METAR and TAF weather

Enter ICAO airport designator
Station Type Date Time Source
LIMP METAR 2019/06/18 05:00 UTC NOAA

LIMP 180500Z 25003KT CAVOK 19/17 Q1016


Station Type Date Time Source
LIMP Decoded METAR 2019/06/18 05:00 UTC NOAA

Parma, Italy (LIMP) 44-49-17N 010-17-41E
Jun 18, 2019 - 01:00 AM EDT / 2019.06.18 0500 UTC
Wind: from the WSW (250 degrees) at 3 MPH (3 KT):0
Visibility: greater than 7 mile(s):0
Temperature: 66 F (19 C)
Dew Point: 62 F (17 C)
Relative Humidity: 88%
Pressure (altimeter): 30.00 in. Hg (1016 hPa)
ob: LIMP 180500Z 25003KT CAVOK 19/17 Q1016
cycle: 5

Station Type Date Time Source
LIMP TAF 2019/06/18 06:21 UTC NOAA

TAF LIMP 180500Z 1806/1906 VRB05KT CAVOK

Example: see airport list